createdAt,value
2018-05-07T00:00:03.600Z,60.10
2018-05-07T00:02:29.562Z,60.20
2018-05-07T00:04:55.584Z,60.30
2018-05-07T00:07:21.606Z,60.00
2018-05-07T00:09:47.629Z,60.10
2018-05-07T00:12:13.677Z,60.20
2018-05-07T00:14:39.652Z,60.40
2018-05-07T00:17:05.780Z,60.50
2018-05-07T00:19:31.781Z,60.10
2018-05-07T00:21:57.853Z,59.60
2018-05-07T00:24:23.877Z,59.40
2018-05-07T00:26:49.904Z,59.20
2018-05-07T00:29:15.992Z,59.30
2018-05-07T00:31:42.020Z,59.30
2018-05-07T00:34:07.993Z,59.30
2018-05-07T00:36:33.991Z,59.60
2018-05-07T00:38:59.995Z,59.70
2018-05-07T00:41:26.017Z,59.70
2018-05-07T00:43:52.084Z,59.70
2018-05-07T00:46:18.219Z,59.90
2018-05-07T00:48:44.265Z,60.20
2018-05-07T00:51:10.236Z,60.20
2018-05-07T00:53:36.274Z,60.40
2018-05-07T00:56:02.355Z,60.90
2018-05-07T00:58:28.354Z,61.20
2018-05-07T01:00:54.343Z,61.30
2018-05-07T01:03:20.374Z,61.20
2018-05-07T01:05:46.398Z,61.00
2018-05-07T01:08:12.417Z,61.00
2018-05-07T01:10:38.394Z,61.10
2018-05-07T01:13:04.417Z,61.30
2018-05-07T01:15:30.362Z,61.70
2018-05-07T01:17:56.414Z,61.80
2018-05-07T01:20:22.529Z,61.40
2018-05-07T01:22:48.482Z,61.30
2018-05-07T01:25:14.483Z,61.20
2018-05-07T01:27:40.447Z,60.90
2018-05-07T01:30:06.426Z,61.20
2018-05-07T01:32:32.423Z,61.20
2018-05-07T01:34:58.446Z,61.30
2018-05-07T01:37:24.433Z,61.70
2018-05-07T01:39:50.460Z,61.70
2018-05-07T01:42:16.517Z,61.40
2018-05-07T01:44:42.553Z,61.50
2018-05-07T01:47:08.559Z,61.50
2018-05-07T01:49:34.581Z,62.00
2018-05-07T01:52:00.612Z,61.70
2018-05-07T01:54:26.556Z,61.80
2018-05-07T01:56:52.548Z,61.80
2018-05-07T01:59:18.575Z,62.10
2018-05-07T02:01:44.579Z,62.10
2018-05-07T02:04:10.650Z,61.90
2018-05-07T02:06:36.654Z,61.90
2018-05-07T02:09:02.653Z,61.60
2018-05-07T02:11:28.740Z,62.30
2018-05-07T02:13:54.735Z,62.30
2018-05-07T02:16:20.764Z,62.60
2018-05-07T02:18:46.772Z,62.20
2018-05-07T02:21:12.781Z,62.30
2018-05-07T02:23:38.809Z,62.30
2018-05-07T02:26:04.869Z,62.90
2018-05-07T02:28:30.886Z,63.00
2018-05-07T02:30:56.862Z,63.60
2018-05-07T02:33:22.921Z,63.80
2018-05-07T02:35:48.935Z,64.10
2018-05-07T02:38:14.954Z,64.30
2018-05-07T02:40:40.953Z,64.60
2018-05-07T02:43:06.973Z,64.90
2018-05-07T02:45:32.975Z,65.80
2018-05-07T02:47:59.028Z,65.00
2018-05-07T02:50:25.155Z,65.20
2018-05-07T02:52:51.191Z,65.60
2018-05-07T02:55:17.197Z,65.70
2018-05-07T02:57:43.223Z,65.90
2018-05-07T03:00:09.257Z,66.20
2018-05-07T03:02:35.229Z,66.80
2018-05-07T03:05:01.191Z,67.30
2018-05-07T03:07:27.247Z,67.50
2018-05-07T03:09:53.232Z,68.00
2018-05-07T03:12:19.304Z,68.50
2018-05-07T03:14:45.332Z,68.80
2018-05-07T03:17:11.325Z,69.30
2018-05-07T03:19:37.313Z,69.30
2018-05-07T03:22:03.673Z,68.50
2018-05-07T03:24:29.813Z,68.10
2018-05-07T03:26:55.864Z,68.20
2018-05-07T03:29:21.891Z,68.50
2018-05-07T03:31:47.861Z,68.80
2018-05-07T03:34:14.168Z,69.30
2018-05-07T03:36:40.159Z,69.70
2018-05-07T03:39:06.141Z,70.30
2018-05-07T03:41:32.184Z,70.60
2018-05-07T03:43:58.187Z,71.10
2018-05-07T03:46:24.212Z,70.80
2018-05-07T03:48:50.228Z,70.70
2018-05-07T03:51:16.220Z,70.90
2018-05-07T03:53:42.203Z,71.60
2018-05-07T03:56:08.253Z,72.20
2018-05-07T03:58:34.353Z,72.50
2018-05-07T04:01:01.085Z,73.00
2018-05-07T04:03:27.234Z,73.20
2018-05-07T04:05:53.229Z,73.10
2018-05-07T04:08:19.234Z,73.40
2018-05-07T04:10:45.785Z,73.20
2018-05-07T04:13:11.796Z,73.80
2018-05-07T04:15:37.812Z,74.40
2018-05-07T04:18:16.157Z,74.40
2018-05-07T04:20:54.460Z,74.40
2018-05-07T04:23:32.925Z,75.00
2018-05-07T04:25:58.893Z,75.80
2018-05-07T04:28:24.998Z,76.50
2018-05-07T04:30:51.016Z,76.30
2018-05-07T04:33:17.065Z,76.10
2018-05-07T04:35:43.038Z,75.50
2018-05-07T04:38:09.763Z,75.80
2018-05-07T04:40:35.892Z,75.90
2018-05-07T04:43:01.927Z,75.30
2018-05-07T04:45:28.727Z,75.60
2018-05-07T04:47:54.805Z,75.40
2018-05-07T04:50:20.819Z,75.90
2018-05-07T04:52:46.805Z,76.30
2018-05-07T04:55:14.160Z,76.00
2018-05-07T04:57:40.183Z,76.80
2018-05-07T05:00:06.152Z,77.00
2018-05-07T05:02:32.344Z,77.20
2018-05-07T05:04:58.346Z,76.90
2018-05-07T05:07:24.376Z,77.10
2018-05-07T05:09:50.432Z,77.20
2018-05-07T05:12:16.489Z,76.60
2018-05-07T05:14:42.506Z,76.50
2018-05-07T05:17:08.597Z,76.40
2018-05-07T05:19:34.578Z,77.10
2018-05-07T05:22:00.537Z,76.40
2018-05-07T05:24:26.569Z,77.10
2018-05-07T05:26:52.577Z,76.40
2018-05-07T05:29:18.835Z,76.10
2018-05-07T05:31:44.931Z,76.30
2018-05-07T05:34:11.058Z,77.00
2018-05-07T05:36:37.072Z,77.40
2018-05-07T05:39:03.053Z,77.00
2018-05-07T05:41:29.093Z,76.20
2018-05-07T05:43:55.026Z,76.60
2018-05-07T05:46:21.218Z,76.20
2018-05-07T05:48:47.303Z,76.00
2018-05-07T05:51:13.272Z,75.70
2018-05-07T05:53:39.372Z,76.20
2018-05-07T05:56:05.382Z,75.90
2018-05-07T05:58:31.340Z,76.90
2018-05-07T06:00:57.339Z,77.30
2018-05-07T06:03:23.351Z,76.80
2018-05-07T06:05:49.289Z,76.20
2018-05-07T06:08:15.332Z,75.30
2018-05-07T06:10:41.384Z,75.20
2018-05-07T06:13:08.382Z,74.60
2018-05-07T06:15:34.380Z,74.90
2018-05-07T06:18:00.583Z,74.80
2018-05-07T06:20:26.685Z,74.50
2018-05-07T06:22:52.625Z,73.60
2018-05-07T06:25:19.685Z,72.70
2018-05-07T06:27:45.739Z,72.60
2018-05-07T06:30:11.753Z,73.10
2018-05-07T06:32:37.760Z,72.40
2018-05-07T06:35:03.859Z,72.10
2018-05-07T06:37:29.977Z,72.00
2018-05-07T06:39:55.967Z,71.30
2018-05-07T06:42:21.940Z,70.70
2018-05-07T06:44:47.900Z,70.60
2018-05-07T06:47:13.940Z,70.20
2018-05-07T06:49:40.149Z,70.30
2018-05-07T06:52:06.315Z,70.20
2018-05-07T06:54:32.311Z,70.20
2018-05-07T06:56:58.369Z,69.90
2018-05-07T06:59:24.522Z,69.50
2018-05-07T07:01:50.548Z,70.10
2018-05-07T07:04:17.380Z,69.60
2018-05-07T07:06:43.590Z,69.60
2018-05-07T07:09:09.596Z,70.00
2018-05-07T07:11:36.541Z,69.80
2018-05-07T07:14:02.610Z,68.90
2018-05-07T07:16:28.665Z,69.10
2018-05-07T07:35:39.058Z,68.10
2018-05-07T07:38:05.139Z,67.40
2018-05-07T07:40:32.092Z,66.70
2018-05-07T07:42:58.169Z,65.70
2018-05-07T07:45:25.153Z,65.00
2018-05-07T07:47:51.374Z,64.70
2018-05-07T07:50:26.870Z,64.20
2018-05-07T07:52:54.051Z,64.50
2018-05-07T07:55:20.984Z,64.00
2018-05-07T07:57:47.214Z,63.80
2018-05-07T08:00:13.976Z,64.10
2018-05-07T08:02:40.017Z,63.90
2018-05-07T08:05:06.459Z,63.40
2018-05-07T08:07:33.206Z,64.10
2018-05-07T08:09:59.328Z,64.70
2018-05-07T08:12:26.089Z,64.70
2018-05-07T08:14:52.318Z,64.50
2018-05-07T08:17:18.396Z,65.00
2018-05-07T08:19:44.550Z,64.10
2018-05-07T08:22:11.436Z,64.30
2018-05-07T08:24:39.133Z,63.20
2018-05-07T08:27:09.773Z,61.90
2018-05-07T08:29:36.824Z,60.70
2018-05-07T08:32:03.060Z,60.60
2018-05-07T08:34:30.076Z,59.80
2018-05-07T08:36:58.030Z,60.00
2018-05-07T08:39:25.121Z,59.90
2018-05-07T08:41:51.258Z,60.20
2018-05-07T08:44:17.307Z,59.60
2018-05-07T08:46:43.382Z,59.40
2018-05-07T08:49:09.381Z,59.60
2018-05-07T08:51:35.511Z,59.50
2018-05-07T08:54:01.677Z,59.30
2018-05-07T08:56:27.732Z,59.10
2018-05-07T08:58:53.788Z,58.60
2018-05-07T09:01:19.861Z,58.60
2018-05-07T09:03:45.870Z,57.30
2018-05-07T09:06:11.915Z,57.00
2018-05-07T09:08:38.037Z,56.60
2018-05-07T09:11:04.157Z,56.50
2018-05-07T09:13:30.294Z,57.20
2018-05-07T09:15:56.367Z,56.40
2018-05-07T09:18:22.434Z,55.90
2018-05-07T09:20:48.518Z,55.50
2018-05-07T09:23:14.552Z,55.40
2018-05-07T09:25:40.571Z,55.60
2018-05-07T09:28:06.623Z,55.40
2018-05-07T09:30:32.735Z,55.40
2018-05-07T09:32:58.729Z,55.10
2018-05-07T09:35:24.741Z,55.20
2018-05-07T09:37:50.824Z,54.90
2018-05-07T09:40:16.865Z,55.20
2018-05-07T09:42:42.942Z,55.40
2018-05-07T09:45:09.031Z,55.80
2018-05-07T09:47:35.061Z,56.00
2018-05-07T09:50:01.296Z,56.20
2018-05-07T09:52:28.432Z,54.60
2018-05-07T09:54:54.479Z,53.70
2018-05-07T09:57:22.074Z,53.40
2018-05-07T09:59:48.662Z,53.40
2018-05-07T10:02:14.729Z,53.50
2018-05-07T10:04:40.701Z,53.60
2018-05-07T10:07:06.956Z,53.20
2018-05-07T10:09:32.979Z,52.60
2018-05-07T10:11:59.061Z,52.30
2018-05-07T10:14:25.929Z,52.30
2018-05-07T10:16:51.990Z,52.30
2018-05-07T10:19:18.728Z,52.10
2018-05-07T10:21:44.746Z,51.50
2018-05-07T10:24:10.827Z,49.80
2018-05-07T10:26:37.727Z,49.60
2018-05-07T10:29:03.841Z,50.60
2018-05-07T10:31:29.879Z,50.40
2018-05-07T10:33:55.874Z,50.40
2018-05-07T10:36:21.942Z,50.20
2018-05-07T10:38:48.232Z,50.20
2018-05-07T10:41:14.296Z,50.40
2018-05-07T10:43:40.481Z,49.90
2018-05-07T10:46:06.645Z,49.90
2018-05-07T10:48:32.629Z,50.10
2018-05-07T10:50:58.648Z,50.10
2018-05-07T10:53:24.668Z,51.00
2018-05-07T10:55:50.760Z,51.20
2018-05-07T10:58:16.810Z,50.00
2018-05-07T11:00:42.961Z,49.90
2018-05-07T11:03:08.982Z,50.80
2018-05-07T11:05:35.057Z,50.10
2018-05-07T11:08:01.132Z,50.70
2018-05-07T11:10:27.080Z,50.90
2018-05-07T11:12:53.143Z,51.10
2018-05-07T11:15:20.472Z,52.10
2018-05-07T11:17:46.501Z,51.50
2018-05-07T11:20:12.576Z,51.00
2018-05-07T11:22:38.648Z,50.70
2018-05-07T11:25:05.373Z,50.00
2018-05-07T11:27:31.293Z,49.90
2018-05-07T11:29:57.339Z,50.30
2018-05-07T11:32:23.517Z,49.80
2018-05-07T11:34:49.682Z,50.00
2018-05-07T11:37:15.728Z,50.40
2018-05-07T11:39:44.893Z,50.50
2018-05-07T11:42:11.962Z,49.60
2018-05-07T11:44:41.658Z,49.00
2018-05-07T11:47:08.000Z,48.10
2018-05-07T11:49:34.207Z,47.80
2018-05-07T11:52:00.368Z,47.90
2018-05-07T11:54:26.586Z,48.50
2018-05-07T11:56:53.544Z,48.20
2018-05-07T11:59:19.695Z,48.10
2018-05-07T12:01:45.856Z,48.50
2018-05-07T12:04:44.105Z,47.80
2018-05-07T12:07:10.872Z,47.30
2018-05-07T12:09:37.579Z,45.60
2018-05-07T12:12:06.319Z,45.70
2018-05-07T12:14:35.106Z,46.00
2018-05-07T12:17:02.063Z,45.70
2018-05-07T12:19:30.935Z,45.20
2018-05-07T12:21:57.940Z,44.60
2018-05-07T12:24:24.803Z,44.40
2018-05-07T12:26:51.890Z,44.80
2018-05-07T12:29:18.103Z,44.00
2018-05-07T12:31:44.417Z,43.30
2018-05-07T12:34:10.545Z,43.00
2018-05-07T12:36:36.661Z,42.80
2018-05-07T12:39:02.684Z,42.10
2018-05-07T12:41:29.634Z,42.00
2018-05-07T12:43:56.551Z,41.90
2018-05-07T12:46:22.680Z,41.50
2018-05-07T12:48:50.500Z,41.60
2018-05-07T12:51:16.718Z,40.70
2018-05-07T12:53:43.435Z,40.30
2018-05-07T12:56:10.255Z,39.80
2018-05-07T13:12:49.723Z,38.20
2018-05-07T13:15:15.738Z,38.30
2018-05-07T13:17:41.821Z,38.60
2018-05-07T13:20:07.942Z,38.30
2018-05-07T13:22:34.192Z,38.60
2018-05-07T13:25:00.225Z,38.20
2018-05-07T13:27:26.904Z,37.60
2018-05-07T13:29:53.003Z,37.40
2018-05-07T13:32:19.134Z,37.20
2018-05-07T13:34:45.220Z,37.10
2018-05-07T13:37:11.263Z,36.60
2018-05-07T13:39:37.442Z,36.50
2018-05-07T13:42:04.364Z,36.50
2018-05-07T13:44:37.423Z,36.00
2018-05-07T13:47:03.456Z,35.60
2018-05-07T13:49:29.943Z,36.00
2018-05-07T13:51:56.607Z,35.70
2018-05-07T13:54:24.983Z,35.40
2018-05-07T13:56:52.032Z,35.60
2018-05-07T13:59:18.512Z,35.10
2018-05-07T14:01:45.032Z,35.70
2018-05-07T14:04:11.152Z,35.30
2018-05-07T14:06:37.573Z,35.50
2018-05-07T14:09:03.967Z,35.60
2018-05-07T14:11:29.973Z,35.50
2018-05-07T14:13:55.951Z,35.70
2018-05-07T14:16:22.057Z,34.70
2018-05-07T14:18:48.296Z,34.00
2018-05-07T14:21:14.504Z,34.80
2018-05-07T14:23:40.549Z,35.40
2018-05-07T14:26:06.668Z,35.00
2018-05-07T14:28:34.813Z,35.00
2018-05-07T14:31:01.528Z,34.60
2018-05-07T14:33:27.599Z,34.70
2018-05-07T14:35:54.605Z,34.30
2018-05-07T14:38:20.875Z,33.90
2018-05-07T14:40:47.083Z,33.70
2018-05-07T14:43:13.204Z,33.70
2018-05-07T14:45:39.240Z,33.60
2018-05-07T14:48:05.287Z,34.30
2018-05-07T14:50:31.385Z,34.10
2018-05-07T14:52:57.379Z,33.80
2018-05-07T14:55:30.274Z,33.60
2018-05-07T14:58:04.569Z,33.70
2018-05-07T15:00:30.594Z,33.80
2018-05-07T15:02:56.766Z,32.80
2018-05-07T15:05:22.901Z,33.60
2018-05-07T15:07:49.764Z,32.30
2018-05-07T15:10:16.692Z,31.80
2018-05-07T15:12:43.211Z,32.00
2018-05-07T15:15:09.346Z,32.10
2018-05-07T15:17:35.432Z,32.10
2018-05-07T15:20:01.609Z,32.00
2018-05-07T15:22:27.787Z,32.80
2018-05-07T15:24:53.967Z,32.70
2018-05-07T15:27:20.459Z,32.60
2018-05-07T15:29:47.101Z,32.10
2018-05-07T15:32:13.948Z,31.80
2018-05-07T15:34:42.083Z,31.60
2018-05-07T15:37:08.179Z,32.20
2018-05-07T15:39:34.359Z,32.40
2018-05-07T15:58:45.959Z,31.10
2018-05-07T16:01:12.044Z,31.00
2018-05-07T16:03:38.123Z,30.80
2018-05-07T16:06:04.143Z,30.60
2018-05-07T16:08:30.092Z,30.30
2018-05-07T16:10:56.218Z,30.70
2018-05-07T16:13:22.194Z,30.70
2018-05-07T16:15:48.235Z,30.60
2018-05-07T16:18:14.798Z,30.30
2018-05-07T16:20:40.911Z,30.10
2018-05-07T16:23:06.839Z,30.20
2018-05-07T16:25:32.860Z,30.00
2018-05-07T16:27:58.908Z,30.00
2018-05-07T16:30:25.341Z,30.00
2018-05-07T16:49:40.625Z,29.80
2018-05-07T16:52:07.368Z,30.10
2018-05-07T16:54:33.371Z,30.00
2018-05-07T16:56:59.348Z,30.50
2018-05-07T16:59:25.421Z,30.00
2018-05-07T17:01:51.590Z,29.90
2018-05-07T17:04:17.856Z,29.80
2018-05-07T17:06:43.965Z,29.70
2018-05-07T17:09:14.768Z,29.90
2018-05-07T17:11:40.825Z,30.00
2018-05-07T17:14:15.279Z,29.80
2018-05-07T17:16:41.353Z,29.70
2018-05-07T17:19:07.403Z,30.10
2018-05-07T17:21:33.502Z,30.50
2018-05-07T17:23:59.495Z,30.60
2018-05-07T17:26:25.549Z,30.80
2018-05-07T17:28:51.768Z,31.10
2018-05-07T17:31:19.011Z,31.10
2018-05-07T17:33:46.132Z,31.30
2018-05-07T17:36:18.420Z,31.00
2018-05-07T17:55:29.386Z,31.20
2018-05-07T17:57:55.440Z,31.30
2018-05-07T18:00:21.544Z,31.40
2018-05-07T18:02:47.786Z,31.40
2018-05-07T18:05:14.255Z,31.20
2018-05-07T18:07:40.408Z,31.00
2018-05-07T18:10:06.431Z,30.90
2018-05-07T18:12:32.430Z,30.70
2018-05-07T18:14:58.467Z,30.50
2018-05-07T18:17:24.494Z,30.10
2018-05-07T18:19:50.641Z,30.00
2018-05-07T18:22:16.705Z,29.90
2018-05-07T18:24:43.416Z,29.80
2018-05-07T18:27:09.464Z,30.00
2018-05-07T18:29:35.445Z,30.70
2018-05-07T18:32:01.485Z,31.60
2018-05-07T18:34:27.514Z,32.80
2018-05-07T18:36:53.519Z,33.40
2018-05-07T18:39:19.534Z,34.00
2018-05-07T18:41:57.054Z,34.80
2018-05-07T18:44:23.261Z,35.80
2018-05-07T18:46:49.256Z,36.80
2018-05-07T18:49:15.750Z,38.10
2018-05-07T18:51:41.991Z,39.20
2018-05-07T18:54:08.912Z,39.60
2018-05-07T18:56:35.696Z,40.20
2018-05-07T19:15:47.390Z,43.10
2018-05-07T19:18:13.413Z,44.00
2018-05-07T19:20:39.505Z,44.70
2018-05-07T19:23:05.524Z,45.20
2018-05-07T19:25:31.635Z,45.80
2018-05-07T19:27:57.622Z,46.20
2018-05-07T19:30:23.645Z,46.80
2018-05-07T19:32:49.809Z,47.30
2018-05-07T19:35:16.738Z,47.60
2018-05-07T19:37:42.725Z,48.00
2018-05-07T19:40:08.967Z,48.30
2018-05-07T19:42:35.551Z,48.50
2018-05-07T19:45:01.540Z,48.80
2018-05-07T19:47:27.560Z,49.10
2018-05-07T19:49:55.430Z,49.20
2018-05-07T20:02:25.146Z,50.50
2018-05-07T20:04:51.847Z,50.80
2018-05-07T20:07:18.298Z,51.10
2018-05-07T20:09:44.896Z,51.20
2018-05-07T20:12:11.038Z,51.40
2018-05-07T20:14:37.059Z,51.50
2018-05-07T20:17:03.383Z,51.60
2018-05-07T20:19:29.441Z,51.80
2018-05-07T20:21:55.459Z,51.90
2018-05-07T20:24:21.481Z,52.00
2018-05-07T20:26:47.697Z,52.20
2018-05-07T20:29:14.818Z,52.30
2018-05-07T20:31:40.954Z,52.20
2018-05-07T20:34:07.095Z,52.30
2018-05-07T20:36:33.121Z,52.60
2018-05-07T20:38:59.474Z,52.70
2018-05-07T20:55:40.137Z,53.80
2018-05-07T20:58:07.461Z,54.00
2018-05-07T21:14:46.566Z,55.00
2018-05-07T21:17:13.176Z,55.20
2018-05-07T21:19:40.410Z,55.70
2018-05-07T21:22:07.332Z,56.10
2018-05-07T21:24:33.383Z,56.30
2018-05-07T21:26:59.401Z,56.40
2018-05-07T21:29:25.554Z,56.50
2018-05-07T21:31:51.544Z,56.60
2018-05-07T21:34:17.621Z,56.70
2018-05-07T21:36:43.635Z,56.80
2018-05-07T21:39:09.669Z,57.00
2018-05-07T21:41:35.656Z,57.20
2018-05-07T21:44:01.644Z,57.00
2018-05-07T21:46:27.644Z,56.90
2018-05-07T21:48:53.711Z,57.10
2018-05-07T21:51:19.676Z,57.10
2018-05-07T21:53:45.780Z,57.20
2018-05-07T21:56:11.829Z,57.60
2018-05-07T21:58:37.772Z,57.70
2018-05-07T22:01:03.782Z,57.80
2018-05-07T22:03:29.837Z,57.90
2018-05-07T22:05:55.825Z,58.10
2018-05-07T22:22:37.587Z,59.70
2018-05-07T22:25:03.619Z,59.80
2018-05-07T22:27:29.641Z,60.70
2018-05-07T22:29:55.691Z,61.20
2018-05-07T22:32:21.635Z,61.30
2018-05-07T22:34:47.608Z,61.40
2018-05-07T22:37:13.797Z,61.10
2018-05-07T22:39:39.776Z,61.20
2018-05-07T22:42:05.785Z,61.00
2018-05-07T22:44:31.702Z,60.80
2018-05-07T22:46:57.702Z,61.00
2018-05-07T22:49:23.702Z,61.30
2018-05-07T22:51:49.825Z,61.80
2018-05-07T22:54:16.519Z,62.40
2018-05-07T22:56:42.527Z,62.70
2018-05-07T22:59:08.551Z,63.10
2018-05-07T23:01:34.508Z,63.40
2018-05-07T23:04:00.453Z,63.60
2018-05-07T23:06:26.430Z,64.00
2018-05-07T23:08:52.454Z,64.50
2018-05-07T23:11:18.452Z,65.10
2018-05-07T23:13:44.399Z,65.60
2018-05-07T23:16:10.396Z,65.80
2018-05-07T23:18:36.341Z,65.70
2018-05-07T23:21:02.408Z,65.50
2018-05-07T23:23:28.529Z,65.40
2018-05-07T23:25:54.542Z,65.20
2018-05-07T23:28:20.563Z,65.10
2018-05-07T23:30:46.545Z,65.40
2018-05-07T23:33:12.505Z,65.30
2018-05-07T23:35:38.504Z,65.70
2018-05-07T23:38:04.535Z,66.00
2018-05-07T23:40:30.518Z,66.30
2018-05-07T23:42:56.568Z,66.20
2018-05-07T23:45:22.516Z,66.00
2018-05-07T23:47:48.483Z,65.50
2018-05-07T23:50:14.600Z,65.20
2018-05-07T23:52:40.616Z,65.40
2018-05-07T23:55:06.587Z,64.90
2018-05-07T23:57:32.533Z,65.00
2018-05-07T23:59:58.521Z,65.10
